sensor_id;sensor_type;location;lat;lon;timestamp;P1;durP1;ratioP1;P2;durP2;ratioP2
75620;SDS011;64574;48.506;-2.750;2022-11-15T00:00:32;12.35;;;1.13;;
75620;SDS011;64574;48.506;-2.750;2022-11-15T00:02:57;5.80;;;1.00;;
75620;SDS011;64574;48.506;-2.750;2022-11-15T00:05:23;7.00;;;1.23;;
75620;SDS011;64574;48.506;-2.750;2022-11-15T00:07:49;10.05;;;1.45;;
75620;SDS011;64574;48.506;-2.750;2022-11-15T00:10:15;7.20;;;1.05;;
75620;SDS011;64574;48.506;-2.750;2022-11-15T00:12:41;5.93;;;1.27;;
75620;SDS011;64574;48.506;-2.750;2022-11-15T00:15:07;6.63;;;1.00;;
75620;SDS011;64574;48.506;-2.750;2022-11-15T00:17:32;6.05;;;0.85;;
75620;SDS011;64574;48.506;-2.750;2022-11-15T00:19:58;7.57;;;0.82;;
75620;SDS011;64574;48.506;-2.750;2022-11-15T00:22:24;7.75;;;1.05;;
75620;SDS011;64574;48.506;-2.750;2022-11-15T00:24:49;5.32;;;1.00;;
75620;SDS011;64574;48.506;-2.750;2022-11-15T00:27:15;5.88;;;0.60;;
75620;SDS011;64574;48.506;-2.750;2022-11-15T00:29:41;5.65;;;0.90;;
75620;SDS011;64574;48.506;-2.750;2022-11-15T00:32:11;4.43;;;0.80;;
75620;SDS011;64574;48.506;-2.750;2022-11-15T00:34:36;3.47;;;1.05;;
75620;SDS011;64574;48.506;-2.750;2022-11-15T00:37:02;4.85;;;0.70;;
75620;SDS011;64574;48.506;-2.750;2022-11-15T00:39:28;3.38;;;0.75;;
75620;SDS011;64574;48.506;-2.750;2022-11-15T00:41:54;5.55;;;0.75;;
75620;SDS011;64574;48.506;-2.750;2022-11-15T00:44:19;5.20;;;0.70;;
75620;SDS011;64574;48.506;-2.750;2022-11-15T00:46:45;4.68;;;0.50;;
75620;SDS011;64574;48.506;-2.750;2022-11-15T00:49:10;2.40;;;0.70;;
75620;SDS011;64574;48.506;-2.750;2022-11-15T00:51:36;5.93;;;0.70;;
75620;SDS011;64574;48.506;-2.750;2022-11-15T00:54:02;4.97;;;0.68;;
75620;SDS011;64574;48.506;-2.750;2022-11-15T00:56:27;8.30;;;0.80;;
75620;SDS011;64574;48.506;-2.750;2022-11-15T00:58:53;3.92;;;0.60;;
75620;SDS011;64574;48.506;-2.750;2022-11-15T01:01:19;3.13;;;0.60;;
75620;SDS011;64574;48.506;-2.750;2022-11-15T01:03:45;4.55;;;0.57;;
75620;SDS011;64574;48.506;-2.750;2022-11-15T01:06:10;3.92;;;0.57;;
75620;SDS011;64574;48.506;-2.750;2022-11-15T01:08:37;2.83;;;0.40;;
75620;SDS011;64574;48.506;-2.750;2022-11-15T01:11:05;2.88;;;0.47;;
75620;SDS011;64574;48.506;-2.750;2022-11-15T01:13:33;4.10;;;0.65;;
75620;SDS011;64574;48.506;-2.750;2022-11-15T01:18:37;7.90;;;0.90;;
75620;SDS011;64574;48.506;-2.750;2022-11-15T01:21:07;4.50;;;0.80;;
75620;SDS011;64574;48.506;-2.750;2022-11-15T01:23:34;6.35;;;0.80;;
75620;SDS011;64574;48.506;-2.750;2022-11-15T01:26:01;4.50;;;0.90;;
75620;SDS011;64574;48.506;-2.750;2022-11-15T01:28:35;6.22;;;0.60;;
75620;SDS011;64574;48.506;-2.750;2022-11-15T01:31:03;2.47;;;0.60;;
75620;SDS011;64574;48.506;-2.750;2022-11-15T01:33:33;4.88;;;0.68;;
75620;SDS011;64574;48.506;-2.750;2022-11-15T01:36:05;5.15;;;0.73;;
75620;SDS011;64574;48.506;-2.750;2022-11-15T01:38:32;6.70;;;1.02;;
75620;SDS011;64574;48.506;-2.750;2022-11-15T01:40:58;5.20;;;0.88;;
75620;SDS011;64574;48.506;-2.750;2022-11-15T01:43:25;4.13;;;0.73;;
75620;SDS011;64574;48.506;-2.750;2022-11-15T01:46:00;4.85;;;0.60;;
75620;SDS011;64574;48.506;-2.750;2022-11-15T01:48:31;3.42;;;0.75;;
75620;SDS011;64574;48.506;-2.750;2022-11-15T01:50:59;5.97;;;0.88;;
75620;SDS011;64574;48.506;-2.750;2022-11-15T01:53:28;7.15;;;0.70;;
75620;SDS011;64574;48.506;-2.750;2022-11-15T01:55:55;5.28;;;0.70;;
75620;SDS011;64574;48.506;-2.750;2022-11-15T01:58:21;7.72;;;0.80;;
75620;SDS011;64574;48.506;-2.750;2022-11-15T02:00:47;5.32;;;0.95;;
75620;SDS011;64574;48.506;-2.750;2022-11-15T02:03:14;4.82;;;0.70;;
75620;SDS011;64574;48.506;-2.750;2022-11-15T02:05:40;4.88;;;0.65;;
75620;SDS011;64574;48.506;-2.750;2022-11-15T02:10:33;4.25;;;0.82;;
75620;SDS011;64574;48.506;-2.750;2022-11-15T02:12:59;5.88;;;0.60;;
75620;SDS011;64574;48.506;-2.750;2022-11-15T02:15:27;6.05;;;0.85;;
75620;SDS011;64574;48.506;-2.750;2022-11-15T02:31:43;4.00;;;0.60;;
75620;SDS011;64574;48.506;-2.750;2022-11-15T02:34:28;6.50;;;0.80;;
75620;SDS011;64574;48.506;-2.750;2022-11-15T02:37:15;5.63;;;0.63;;
75620;SDS011;64574;48.506;-2.750;2022-11-15T02:39:55;3.28;;;0.60;;
75620;SDS011;64574;48.506;-2.750;2022-11-15T02:42:27;4.85;;;0.75;;
75620;SDS011;64574;48.506;-2.750;2022-11-15T02:45:23;3.47;;;0.70;;
75620;SDS011;64574;48.506;-2.750;2022-11-15T02:47:54;2.60;;;0.55;;
75620;SDS011;64574;48.506;-2.750;2022-11-15T02:50:24;2.53;;;0.50;;
75620;SDS011;64574;48.506;-2.750;2022-11-15T02:52:52;4.15;;;0.82;;
75620;SDS011;64574;48.506;-2.750;2022-11-15T03:01:01;4.13;;;0.60;;
75620;SDS011;64574;48.506;-2.750;2022-11-15T03:12:12;2.35;;;0.40;;
75620;SDS011;64574;48.506;-2.750;2022-11-15T03:14:47;4.00;;;0.50;;
75620;SDS011;64574;48.506;-2.750;2022-11-15T03:17:23;2.55;;;0.60;;
75620;SDS011;64574;48.506;-2.750;2022-11-15T03:20:13;1.92;;;0.60;;
75620;SDS011;64574;48.506;-2.750;2022-11-15T03:22:43;2.05;;;0.40;;
75620;SDS011;64574;48.506;-2.750;2022-11-15T03:25:11;3.33;;;0.32;;
75620;SDS011;64574;48.506;-2.750;2022-11-15T03:27:43;0.82;;;0.25;;
75620;SDS011;64574;48.506;-2.750;2022-11-15T03:30:12;1.50;;;0.20;;
75620;SDS011;64574;48.506;-2.750;2022-11-15T03:32:40;3.83;;;0.40;;
75620;SDS011;64574;48.506;-2.750;2022-11-15T03:35:21;1.13;;;0.22;;
75620;SDS011;64574;48.506;-2.750;2022-11-15T03:37:50;1.92;;;0.40;;
75620;SDS011;64574;48.506;-2.750;2022-11-15T03:40:36;1.83;;;0.30;;
75620;SDS011;64574;48.506;-2.750;2022-11-15T03:43:32;2.58;;;0.40;;
75620;SDS011;64574;48.506;-2.750;2022-11-15T03:46:05;0.90;;;0.22;;
75620;SDS011;64574;48.506;-2.750;2022-11-15T03:48:45;1.38;;;0.30;;
75620;SDS011;64574;48.506;-2.750;2022-11-15T03:51:30;1.10;;;0.30;;
75620;SDS011;64574;48.506;-2.750;2022-11-15T03:53:56;1.30;;;0.30;;
75620;SDS011;64574;48.506;-2.750;2022-11-15T03:56:22;1.27;;;0.20;;
75620;SDS011;64574;48.506;-2.750;2022-11-15T03:58:48;0.80;;;0.20;;
75620;SDS011;64574;48.506;-2.750;2022-11-15T04:01:14;2.63;;;0.40;;
75620;SDS011;64574;48.506;-2.750;2022-11-15T04:03:39;1.45;;;0.15;;
75620;SDS011;64574;48.506;-2.750;2022-11-15T04:06:05;0.40;;;0.20;;
75620;SDS011;64574;48.506;-2.750;2022-11-15T04:08:31;0.80;;;0.32;;
75620;SDS011;64574;48.506;-2.750;2022-11-15T04:10:56;1.98;;;0.30;;
75620;SDS011;64574;48.506;-2.750;2022-11-15T04:13:22;0.80;;;0.28;;
75620;SDS011;64574;48.506;-2.750;2022-11-15T04:15:48;0.90;;;0.17;;
75620;SDS011;64574;48.506;-2.750;2022-11-15T04:18:13;0.68;;;0.20;;
75620;SDS011;64574;48.506;-2.750;2022-11-15T04:20:39;2.03;;;0.38;;
75620;SDS011;64574;48.506;-2.750;2022-11-15T04:23:23;0.73;;;0.20;;
75620;SDS011;64574;48.506;-2.750;2022-11-15T04:26:17;2.22;;;0.20;;
75620;SDS011;64574;48.506;-2.750;2022-11-15T04:28:45;1.02;;;0.20;;
75620;SDS011;64574;48.506;-2.750;2022-11-15T04:31:30;1.58;;;0.93;;
75620;SDS011;64574;48.506;-2.750;2022-11-15T04:33:55;0.70;;;0.10;;
75620;SDS011;64574;48.506;-2.750;2022-11-15T04:36:22;0.70;;;0.30;;
75620;SDS011;64574;48.506;-2.750;2022-11-15T04:39:06;0.75;;;0.20;;
75620;SDS011;64574;48.506;-2.750;2022-11-15T04:41:32;1.27;;;0.30;;
75620;SDS011;64574;48.506;-2.750;2022-11-15T04:43:58;1.65;;;0.30;;
75620;SDS011;64574;48.506;-2.750;2022-11-15T04:46:23;0.88;;;0.20;;
75620;SDS011;64574;48.506;-2.750;2022-11-15T04:48:49;2.45;;;0.30;;
75620;SDS011;64574;48.506;-2.750;2022-11-15T04:51:16;1.42;;;0.40;;
75620;SDS011;64574;48.506;-2.750;2022-11-15T04:53:42;1.20;;;0.47;;
75620;SDS011;64574;48.506;-2.750;2022-11-15T04:56:08;1.02;;;0.20;;
75620;SDS011;64574;48.506;-2.750;2022-11-15T04:58:34;0.57;;;0.20;;
75620;SDS011;64574;48.506;-2.750;2022-11-15T05:01:10;1.98;;;0.30;;
75620;SDS011;64574;48.506;-2.750;2022-11-15T05:06:27;1.75;;;0.63;;
75620;SDS011;64574;48.506;-2.750;2022-11-15T05:08:52;1.70;;;0.30;;
75620;SDS011;64574;48.506;-2.750;2022-11-15T05:11:18;2.05;;;0.20;;
75620;SDS011;64574;48.506;-2.750;2022-11-15T05:13:45;0.47;;;0.20;;
75620;SDS011;64574;48.506;-2.750;2022-11-15T05:16:11;2.20;;;0.30;;
75620;SDS011;64574;48.506;-2.750;2022-11-15T05:18:36;0.70;;;0.20;;
75620;SDS011;64574;48.506;-2.750;2022-11-15T05:21:09;1.33;;;0.22;;
75620;SDS011;64574;48.506;-2.750;2022-11-15T05:23:39;0.20;;;0.10;;
75620;SDS011;64574;48.506;-2.750;2022-11-15T05:26:05;0.93;;;0.20;;
75620;SDS011;64574;48.506;-2.750;2022-11-15T05:28:32;2.17;;;0.30;;
75620;SDS011;64574;48.506;-2.750;2022-11-15T05:31:04;0.95;;;0.22;;
75620;SDS011;64574;48.506;-2.750;2022-11-15T05:33:34;2.30;;;0.28;;
75620;SDS011;64574;48.506;-2.750;2022-11-15T05:38:32;0.90;;;0.20;;
75620;SDS011;64574;48.506;-2.750;2022-11-15T05:40:59;2.28;;;0.20;;
75620;SDS011;64574;48.506;-2.750;2022-11-15T05:43:25;1.65;;;0.50;;
75620;SDS011;64574;48.506;-2.750;2022-11-15T05:45:52;2.55;;;0.35;;
75620;SDS011;64574;48.506;-2.750;2022-11-15T05:48:18;1.80;;;0.28;;
75620;SDS011;64574;48.506;-2.750;2022-11-15T05:50:45;0.95;;;0.20;;
75620;SDS011;64574;48.506;-2.750;2022-11-15T05:53:12;1.20;;;0.20;;
75620;SDS011;64574;48.506;-2.750;2022-11-15T05:55:41;1.70;;;0.30;;
75620;SDS011;64574;48.506;-2.750;2022-11-15T05:58:07;1.83;;;0.22;;
75620;SDS011;64574;48.506;-2.750;2022-11-15T06:00:32;2.95;;;1.20;;
75620;SDS011;64574;48.506;-2.750;2022-11-15T06:02:58;1.90;;;0.50;;
75620;SDS011;64574;48.506;-2.750;2022-11-15T06:05:24;4.25;;;0.30;;
75620;SDS011;64574;48.506;-2.750;2022-11-15T06:07:50;1.13;;;0.25;;
75620;SDS011;64574;48.506;-2.750;2022-11-15T06:10:15;0.85;;;0.20;;
75620;SDS011;64574;48.506;-2.750;2022-11-15T06:12:41;0.65;;;0.20;;
75620;SDS011;64574;48.506;-2.750;2022-11-15T06:15:07;0.47;;;0.20;;
75620;SDS011;64574;48.506;-2.750;2022-11-15T06:17:33;1.65;;;0.10;;
75620;SDS011;64574;48.506;-2.750;2022-11-15T06:19:59;1.52;;;0.20;;
75620;SDS011;64574;48.506;-2.750;2022-11-15T06:22:24;1.65;;;0.22;;
75620;SDS011;64574;48.506;-2.750;2022-11-15T06:24:50;0.63;;;0.10;;
75620;SDS011;64574;48.506;-2.750;2022-11-15T06:27:15;1.67;;;0.20;;
75620;SDS011;64574;48.506;-2.750;2022-11-15T06:29:41;0.80;;;0.10;;
75620;SDS011;64574;48.506;-2.750;2022-11-15T06:32:07;1.27;;;0.10;;
75620;SDS011;64574;48.506;-2.750;2022-11-15T06:34:32;0.85;;;0.15;;
75620;SDS011;64574;48.506;-2.750;2022-11-15T06:36:58;0.40;;;0.17;;
75620;SDS011;64574;48.506;-2.750;2022-11-15T06:39:24;0.73;;;0.30;;
75620;SDS011;64574;48.506;-2.750;2022-11-15T06:41:49;0.10;;;0.10;;
75620;SDS011;64574;48.506;-2.750;2022-11-15T06:44:15;0.73;;;0.10;;
75620;SDS011;64574;48.506;-2.750;2022-11-15T06:46:41;1.45;;;0.13;;
75620;SDS011;64574;48.506;-2.750;2022-11-15T06:49:07;0.88;;;0.10;;
75620;SDS011;64574;48.506;-2.750;2022-11-15T06:51:32;1.20;;;0.28;;
75620;SDS011;64574;48.506;-2.750;2022-11-15T06:53:58;2.08;;;0.25;;
75620;SDS011;64574;48.506;-2.750;2022-11-15T06:56:24;0.80;;;0.20;;
75620;SDS011;64574;48.506;-2.750;2022-11-15T06:58:49;0.70;;;0.20;;
75620;SDS011;64574;48.506;-2.750;2022-11-15T07:01:15;0.75;;;0.20;;
75620;SDS011;64574;48.506;-2.750;2022-11-15T07:03:41;0.57;;;0.17;;
75620;SDS011;64574;48.506;-2.750;2022-11-15T07:06:07;0.77;;;0.40;;
75620;SDS011;64574;48.506;-2.750;2022-11-15T07:08:34;1.65;;;0.17;;
75620;SDS011;64574;48.506;-2.750;2022-11-15T07:11:01;0.63;;;0.20;;
75620;SDS011;64574;48.506;-2.750;2022-11-15T07:13:29;0.43;;;0.10;;
75620;SDS011;64574;48.506;-2.750;2022-11-15T07:15:58;0.68;;;0.10;;
75620;SDS011;64574;48.506;-2.750;2022-11-15T07:18:30;0.60;;;0.10;;
75620;SDS011;64574;48.506;-2.750;2022-11-15T07:21:05;0.20;;;0.00;;
75620;SDS011;64574;48.506;-2.750;2022-11-15T07:23:38;0.95;;;0.10;;
75620;SDS011;64574;48.506;-2.750;2022-11-15T07:26:05;0.93;;;0.13;;
75620;SDS011;64574;48.506;-2.750;2022-11-15T07:28:31;0.88;;;0.10;;
75620;SDS011;64574;48.506;-2.750;2022-11-15T07:30:57;0.82;;;0.15;;
75620;SDS011;64574;48.506;-2.750;2022-11-15T07:33:23;0.75;;;0.20;;
75620;SDS011;64574;48.506;-2.750;2022-11-15T07:35:48;1.45;;;0.30;;
75620;SDS011;64574;48.506;-2.750;2022-11-15T07:38:14;0.50;;;0.20;;
75620;SDS011;64574;48.506;-2.750;2022-11-15T07:40:40;3.15;;;0.60;;
75620;SDS011;64574;48.506;-2.750;2022-11-15T07:43:06;0.50;;;0.25;;
75620;SDS011;64574;48.506;-2.750;2022-11-15T07:45:33;1.08;;;0.25;;
75620;SDS011;64574;48.506;-2.750;2022-11-15T07:47:59;1.98;;;0.20;;
75620;SDS011;64574;48.506;-2.750;2022-11-15T07:50:26;0.40;;;0.10;;
75620;SDS011;64574;48.506;-2.750;2022-11-15T07:52:55;1.67;;;0.50;;
75620;SDS011;64574;48.506;-2.750;2022-11-15T07:55:22;1.67;;;0.40;;
75620;SDS011;64574;48.506;-2.750;2022-11-15T07:57:52;1.58;;;0.40;;
75620;SDS011;64574;48.506;-2.750;2022-11-15T08:00:18;1.08;;;0.28;;
75620;SDS011;64574;48.506;-2.750;2022-11-15T08:02:44;2.25;;;0.50;;
75620;SDS011;64574;48.506;-2.750;2022-11-15T08:05:10;1.55;;;0.32;;
75620;SDS011;64574;48.506;-2.750;2022-11-15T08:07:36;1.77;;;0.50;;
75620;SDS011;64574;48.506;-2.750;2022-11-15T08:10:03;0.88;;;0.28;;
75620;SDS011;64574;48.506;-2.750;2022-11-15T08:12:30;0.70;;;0.40;;
75620;SDS011;64574;48.506;-2.750;2022-11-15T08:14:56;0.75;;;0.20;;
75620;SDS011;64574;48.506;-2.750;2022-11-15T08:17:23;2.00;;;0.25;;
75620;SDS011;64574;48.506;-2.750;2022-11-15T08:19:49;0.85;;;0.32;;
75620;SDS011;64574;48.506;-2.750;2022-11-15T08:22:15;3.15;;;0.30;;
75620;SDS011;64574;48.506;-2.750;2022-11-15T08:24:41;0.88;;;0.20;;
75620;SDS011;64574;48.506;-2.750;2022-11-15T08:27:07;2.00;;;0.30;;
75620;SDS011;64574;48.506;-2.750;2022-11-15T08:29:44;1.77;;;0.13;;
75620;SDS011;64574;48.506;-2.750;2022-11-15T08:32:11;0.32;;;0.10;;
75620;SDS011;64574;48.506;-2.750;2022-11-15T08:34:37;0.35;;;0.10;;
75620;SDS011;64574;48.506;-2.750;2022-11-15T08:37:03;1.60;;;0.30;;
75620;SDS011;64574;48.506;-2.750;2022-11-15T08:39:29;0.55;;;0.10;;
75620;SDS011;64574;48.506;-2.750;2022-11-15T08:41:55;1.98;;;0.40;;
75620;SDS011;64574;48.506;-2.750;2022-11-15T08:44:21;1.77;;;0.40;;
75620;SDS011;64574;48.506;-2.750;2022-11-15T08:46:47;0.75;;;0.20;;
75620;SDS011;64574;48.506;-2.750;2022-11-15T08:49:12;1.33;;;0.30;;
75620;SDS011;64574;48.506;-2.750;2022-11-15T08:51:38;2.42;;;1.25;;
75620;SDS011;64574;48.506;-2.750;2022-11-15T08:54:04;2.70;;;0.20;;
75620;SDS011;64574;48.506;-2.750;2022-11-15T08:56:30;1.80;;;0.40;;
75620;SDS011;64574;48.506;-2.750;2022-11-15T08:58:55;0.95;;;0.20;;
75620;SDS011;64574;48.506;-2.750;2022-11-15T09:01:21;4.72;;;0.32;;
75620;SDS011;64574;48.506;-2.750;2022-11-15T09:03:47;1.67;;;0.20;;
75620;SDS011;64574;48.506;-2.750;2022-11-15T09:06:13;1.38;;;0.22;;
75620;SDS011;64574;48.506;-2.750;2022-11-15T09:08:39;0.47;;;0.10;;
75620;SDS011;64574;48.506;-2.750;2022-11-15T09:11:06;4.28;;;0.40;;
75620;SDS011;64574;48.506;-2.750;2022-11-15T09:13:33;4.28;;;0.38;;
75620;SDS011;64574;48.506;-2.750;2022-11-15T09:15:59;0.60;;;0.17;;
75620;SDS011;64574;48.506;-2.750;2022-11-15T09:18:26;3.15;;;0.60;;
75620;SDS011;64574;48.506;-2.750;2022-11-15T09:20:56;2.92;;;0.45;;
75620;SDS011;64574;48.506;-2.750;2022-11-15T09:23:25;3.22;;;0.50;;
75620;SDS011;64574;48.506;-2.750;2022-11-15T09:25:51;3.47;;;0.68;;
75620;SDS011;64574;48.506;-2.750;2022-11-15T09:28:22;2.70;;;0.57;;
75620;SDS011;64574;48.506;-2.750;2022-11-15T09:30:48;4.32;;;0.52;;
75620;SDS011;64574;48.506;-2.750;2022-11-15T09:33:14;4.25;;;0.60;;
75620;SDS011;64574;48.506;-2.750;2022-11-15T09:35:39;3.15;;;0.52;;
75620;SDS011;64574;48.506;-2.750;2022-11-15T09:38:05;6.78;;;0.60;;
75620;SDS011;64574;48.506;-2.750;2022-11-15T09:40:31;5.93;;;0.75;;
75620;SDS011;64574;48.506;-2.750;2022-11-15T09:51:12;5.35;;;1.17;;
75620;SDS011;64574;48.506;-2.750;2022-11-15T09:56:47;5.57;;;0.77;;
75620;SDS011;64574;48.506;-2.750;2022-11-15T09:59:18;3.63;;;0.63;;
75620;SDS011;64574;48.506;-2.750;2022-11-15T10:02:20;3.47;;;0.90;;
75620;SDS011;64574;48.506;-2.750;2022-11-15T10:05:09;5.88;;;0.63;;
75620;SDS011;64574;48.506;-2.750;2022-11-15T10:07:58;7.60;;;0.80;;
75620;SDS011;64574;48.506;-2.750;2022-11-15T10:13:06;2.22;;;0.50;;
75620;SDS011;64574;48.506;-2.750;2022-11-15T10:15:47;2.00;;;0.45;;
75620;SDS011;64574;48.506;-2.750;2022-11-15T10:18:18;3.33;;;0.60;;
75620;SDS011;64574;48.506;-2.750;2022-11-15T10:20:59;2.08;;;0.60;;
75620;SDS011;64574;48.506;-2.750;2022-11-15T10:23:39;2.05;;;0.55;;
75620;SDS011;64574;48.506;-2.750;2022-11-15T10:26:06;2.70;;;0.60;;
75620;SDS011;64574;48.506;-2.750;2022-11-15T10:28:36;2.72;;;0.50;;
75620;SDS011;64574;48.506;-2.750;2022-11-15T10:31:01;4.10;;;0.70;;
75620;SDS011;64574;48.506;-2.750;2022-11-15T10:33:37;4.05;;;0.60;;
75620;SDS011;64574;48.506;-2.750;2022-11-15T10:44:01;4.03;;;0.77;;
75620;SDS011;64574;48.506;-2.750;2022-11-15T10:46:48;4.80;;;1.02;;
75620;SDS011;64574;48.506;-2.750;2022-11-15T10:49:31;2.95;;;0.60;;
75620;SDS011;64574;48.506;-2.750;2022-11-15T10:56:55;4.43;;;0.50;;
75620;SDS011;64574;48.506;-2.750;2022-11-15T10:59:26;5.25;;;0.80;;
75620;SDS011;64574;48.506;-2.750;2022-11-15T11:01:57;3.47;;;0.90;;
75620;SDS011;64574;48.506;-2.750;2022-11-15T11:04:23;5.28;;;0.77;;
75620;SDS011;64574;48.506;-2.750;2022-11-15T11:11:59;6.03;;;0.88;;
75620;SDS011;64574;48.506;-2.750;2022-11-15T11:20:39;4.97;;;0.75;;
75620;SDS011;64574;48.506;-2.750;2022-11-15T11:25:51;4.57;;;1.10;;
75620;SDS011;64574;48.506;-2.750;2022-11-15T11:28:18;6.30;;;1.08;;
75620;SDS011;64574;48.506;-2.750;2022-11-15T11:31:10;5.25;;;0.63;;
75620;SDS011;64574;48.506;-2.750;2022-11-15T11:34:26;4.80;;;0.82;;
75620;SDS011;64574;48.506;-2.750;2022-11-15T11:43:03;4.25;;;0.90;;
75620;SDS011;64574;48.506;-2.750;2022-11-15T11:51:10;3.15;;;0.65;;
75620;SDS011;64574;48.506;-2.750;2022-11-15T11:54:00;6.80;;;0.93;;
75620;SDS011;64574;48.506;-2.750;2022-11-15T11:56:34;5.70;;;1.00;;
75620;SDS011;64574;48.506;-2.750;2022-11-15T11:59:07;6.40;;;1.50;;
75620;SDS011;64574;48.506;-2.750;2022-11-15T12:01:42;4.95;;;1.00;;
75620;SDS011;64574;48.506;-2.750;2022-11-15T12:04:25;6.40;;;0.95;;
75620;SDS011;64574;48.506;-2.750;2022-11-15T12:14:31;8.05;;;0.85;;
75620;SDS011;64574;48.506;-2.750;2022-11-15T12:17:13;5.55;;;0.70;;
75620;SDS011;64574;48.506;-2.750;2022-11-15T12:19:41;5.78;;;0.93;;
75620;SDS011;64574;48.506;-2.750;2022-11-15T12:27:29;5.32;;;0.50;;
75620;SDS011;64574;48.506;-2.750;2022-11-15T12:30:11;3.95;;;0.63;;
75620;SDS011;64574;48.506;-2.750;2022-11-15T12:32:52;3.65;;;0.55;;
75620;SDS011;64574;48.506;-2.750;2022-11-15T12:37:51;2.28;;;0.60;;
75620;SDS011;64574;48.506;-2.750;2022-11-15T12:40:22;2.55;;;0.50;;
75620;SDS011;64574;48.506;-2.750;2022-11-15T12:45:29;3.78;;;0.30;;
75620;SDS011;64574;48.506;-2.750;2022-11-15T13:06:38;5.32;;;0.60;;
75620;SDS011;64574;48.506;-2.750;2022-11-15T13:09:49;3.78;;;0.50;;
75620;SDS011;64574;48.506;-2.750;2022-11-15T13:14:54;2.60;;;0.30;;
75620;SDS011;64574;48.506;-2.750;2022-11-15T13:17:33;3.28;;;0.55;;
75620;SDS011;64574;48.506;-2.750;2022-11-15T13:25:27;3.42;;;0.50;;
75620;SDS011;64574;48.506;-2.750;2022-11-15T13:27:58;2.50;;;0.43;;
75620;SDS011;64574;48.506;-2.750;2022-11-15T13:30:29;3.53;;;0.60;;
75620;SDS011;64574;48.506;-2.750;2022-11-15T13:32:57;4.25;;;0.73;;
75620;SDS011;64574;48.506;-2.750;2022-11-15T13:35:32;2.70;;;0.52;;
75620;SDS011;64574;48.506;-2.750;2022-11-15T13:38:04;3.00;;;0.40;;
75620;SDS011;64574;48.506;-2.750;2022-11-15T13:40:37;2.55;;;0.30;;
75620;SDS011;64574;48.506;-2.750;2022-11-15T13:43:26;1.80;;;0.60;;
75620;SDS011;64574;48.506;-2.750;2022-11-15T13:46:30;3.25;;;0.70;;
75620;SDS011;64574;48.506;-2.750;2022-11-15T13:48:54;5.60;;;2.00;;
75620;SDS011;64574;48.506;-2.750;2022-11-15T13:51:25;2.10;;;0.30;;
75620;SDS011;64574;48.506;-2.750;2022-11-15T13:53:54;6.28;;;0.50;;
75620;SDS011;64574;48.506;-2.750;2022-11-15T13:58:52;3.15;;;0.68;;
75620;SDS011;64574;48.506;-2.750;2022-11-15T14:01:20;4.88;;;0.60;;
75620;SDS011;64574;48.506;-2.750;2022-11-15T14:03:48;2.00;;;0.47;;
75620;SDS011;64574;48.506;-2.750;2022-11-15T14:06:19;3.20;;;0.30;;
75620;SDS011;64574;48.506;-2.750;2022-11-15T14:11:54;2.33;;;0.40;;
75620;SDS011;64574;48.506;-2.750;2022-11-15T14:14:22;2.00;;;0.52;;
75620;SDS011;64574;48.506;-2.750;2022-11-15T14:16:50;1.92;;;0.32;;
75620;SDS011;64574;48.506;-2.750;2022-11-15T14:24:41;3.20;;;0.60;;
75620;SDS011;64574;48.506;-2.750;2022-11-15T14:29:54;2.25;;;0.55;;
75620;SDS011;64574;48.506;-2.750;2022-11-15T14:34:48;5.05;;;0.50;;
75620;SDS011;64574;48.506;-2.750;2022-11-15T14:39:46;5.07;;;0.55;;
75620;SDS011;64574;48.506;-2.750;2022-11-15T14:42:12;3.63;;;0.82;;
75620;SDS011;64574;48.506;-2.750;2022-11-15T14:44:37;5.13;;;0.75;;
75620;SDS011;64574;48.506;-2.750;2022-11-15T14:47:03;3.92;;;0.70;;
75620;SDS011;64574;48.506;-2.750;2022-11-15T14:49:29;6.88;;;1.20;;
75620;SDS011;64574;48.506;-2.750;2022-11-15T14:51:54;5.72;;;1.15;;
75620;SDS011;64574;48.506;-2.750;2022-11-15T14:54:20;10.02;;;1.05;;
75620;SDS011;64574;48.506;-2.750;2022-11-15T14:56:46;6.90;;;0.80;;
75620;SDS011;64574;48.506;-2.750;2022-11-15T14:59:11;8.57;;;0.80;;
75620;SDS011;64574;48.506;-2.750;2022-11-15T15:01:37;7.93;;;0.82;;
75620;SDS011;64574;48.506;-2.750;2022-11-15T15:04:03;6.05;;;0.80;;
75620;SDS011;64574;48.506;-2.750;2022-11-15T15:06:28;3.78;;;0.80;;
75620;SDS011;64574;48.506;-2.750;2022-11-15T15:08:55;7.25;;;1.25;;
75620;SDS011;64574;48.506;-2.750;2022-11-15T15:11:22;4.18;;;0.90;;
75620;SDS011;64574;48.506;-2.750;2022-11-15T15:13:51;5.60;;;0.85;;
75620;SDS011;64574;48.506;-2.750;2022-11-15T15:16:17;5.85;;;0.98;;
75620;SDS011;64574;48.506;-2.750;2022-11-15T15:18:43;6.82;;;0.75;;
75620;SDS011;64574;48.506;-2.750;2022-11-15T15:21:28;8.00;;;0.70;;
75620;SDS011;64574;48.506;-2.750;2022-11-15T15:23:57;8.00;;;1.05;;
75620;SDS011;64574;48.506;-2.750;2022-11-15T15:26:23;6.32;;;0.95;;
75620;SDS011;64574;48.506;-2.750;2022-11-15T15:28:49;5.40;;;0.65;;
75620;SDS011;64574;48.506;-2.750;2022-11-15T15:31:16;5.90;;;1.02;;
75620;SDS011;64574;48.506;-2.750;2022-11-15T15:33:42;6.47;;;0.90;;
75620;SDS011;64574;48.506;-2.750;2022-11-15T15:36:12;7.82;;;0.85;;
75620;SDS011;64574;48.506;-2.750;2022-11-15T15:38:39;8.75;;;1.20;;
75620;SDS011;64574;48.506;-2.750;2022-11-15T15:41:15;7.07;;;1.30;;
75620;SDS011;64574;48.506;-2.750;2022-11-15T15:43:42;6.32;;;0.70;;
75620;SDS011;64574;48.506;-2.750;2022-11-15T15:46:12;5.55;;;0.80;;
75620;SDS011;64574;48.506;-2.750;2022-11-15T15:48:40;3.90;;;0.80;;
75620;SDS011;64574;48.506;-2.750;2022-11-15T15:51:06;5.57;;;0.73;;
75620;SDS011;64574;48.506;-2.750;2022-11-15T15:53:32;2.90;;;0.73;;
75620;SDS011;64574;48.506;-2.750;2022-11-15T15:55:58;6.07;;;0.90;;
75620;SDS011;64574;48.506;-2.750;2022-11-15T15:58:24;4.60;;;0.65;;
75620;SDS011;64574;48.506;-2.750;2022-11-15T16:00:50;8.80;;;1.10;;
75620;SDS011;64574;48.506;-2.750;2022-11-15T16:03:16;5.65;;;0.80;;
75620;SDS011;64574;48.506;-2.750;2022-11-15T16:05:41;4.78;;;0.82;;
75620;SDS011;64574;48.506;-2.750;2022-11-15T16:08:28;4.60;;;1.35;;
75620;SDS011;64574;48.506;-2.750;2022-11-15T16:10:54;8.35;;;0.85;;
75620;SDS011;64574;48.506;-2.750;2022-11-15T16:13:20;7.30;;;1.02;;
75620;SDS011;64574;48.506;-2.750;2022-11-15T16:15:47;5.90;;;0.85;;
75620;SDS011;64574;48.506;-2.750;2022-11-15T16:18:17;3.45;;;1.05;;
75620;SDS011;64574;48.506;-2.750;2022-11-15T16:20:44;6.22;;;0.95;;
75620;SDS011;64574;48.506;-2.750;2022-11-15T16:23:14;8.20;;;1.40;;
75620;SDS011;64574;48.506;-2.750;2022-11-15T16:25:45;5.88;;;0.90;;
75620;SDS011;64574;48.506;-2.750;2022-11-15T16:28:25;10.88;;;1.10;;
75620;SDS011;64574;48.506;-2.750;2022-11-15T16:31:00;8.68;;;0.90;;
75620;SDS011;64574;48.506;-2.750;2022-11-15T16:33:27;6.10;;;1.27;;
75620;SDS011;64574;48.506;-2.750;2022-11-15T16:35:53;5.25;;;0.80;;
75620;SDS011;64574;48.506;-2.750;2022-11-15T16:38:19;5.97;;;1.15;;
75620;SDS011;64574;48.506;-2.750;2022-11-15T16:40:45;7.95;;;1.10;;
75620;SDS011;64574;48.506;-2.750;2022-11-15T16:43:10;4.35;;;1.00;;
75620;SDS011;64574;48.506;-2.750;2022-11-15T16:45:36;4.93;;;0.93;;
75620;SDS011;64574;48.506;-2.750;2022-11-15T16:48:02;6.78;;;1.20;;
75620;SDS011;64574;48.506;-2.750;2022-11-15T16:50:29;4.10;;;0.80;;
75620;SDS011;64574;48.506;-2.750;2022-11-15T16:52:59;4.70;;;1.08;;
75620;SDS011;64574;48.506;-2.750;2022-11-15T16:55:25;6.07;;;1.30;;
75620;SDS011;64574;48.506;-2.750;2022-11-15T16:57:53;6.75;;;1.30;;
75620;SDS011;64574;48.506;-2.750;2022-11-15T17:00:22;7.90;;;1.00;;
75620;SDS011;64574;48.506;-2.750;2022-11-15T17:02:48;9.73;;;1.45;;
75620;SDS011;64574;48.506;-2.750;2022-11-15T17:05:16;6.47;;;1.30;;
75620;SDS011;64574;48.506;-2.750;2022-11-15T17:07:45;6.85;;;1.95;;
75620;SDS011;64574;48.506;-2.750;2022-11-15T17:10:13;7.90;;;1.48;;
75620;SDS011;64574;48.506;-2.750;2022-11-15T17:12:39;3.67;;;1.02;;
75620;SDS011;64574;48.506;-2.750;2022-11-15T17:15:04;5.07;;;1.02;;
75620;SDS011;64574;48.506;-2.750;2022-11-15T17:17:31;9.02;;;1.50;;
75620;SDS011;64574;48.506;-2.750;2022-11-15T17:19:56;9.93;;;1.33;;